sensor_id;sensor_type;location;lat;lon;timestamp;pressure;altitude;pressure_sealevel;temperature;humidity
58690;BME280;44470;53.206;-6.106;2023-09-07T00:02:15;101817.38;;;20.92;70.03
58690;BME280;44470;53.206;-6.106;2023-09-07T00:04:40;101824.50;;;20.96;70.39
58690;BME280;44470;53.206;-6.106;2023-09-07T00:07:06;101813.78;;;20.96;70.18
58690;BME280;44470;53.206;-6.106;2023-09-07T00:09:31;101814.69;;;20.95;70.15
58690;BME280;44470;53.206;-6.106;2023-09-07T00:11:57;101803.09;;;20.96;70.14
58690;BME280;44470;53.206;-6.106;2023-09-07T00:14:22;101795.97;;;20.95;70.10
58690;BME280;44470;53.206;-6.106;2023-09-07T00:16:48;101795.06;;;20.96;70.29
58690;BME280;44470;53.206;-6.106;2023-09-07T00:19:13;101797.75;;;20.96;70.30
58690;BME280;44470;53.206;-6.106;2023-09-07T00:21:38;101789.72;;;20.96;69.98
58690;BME280;44470;53.206;-6.106;2023-09-07T00:24:04;101787.94;;;20.95;69.97
58690;BME280;44470;53.206;-6.106;2023-09-07T00:26:31;101765.63;;;20.96;70.09
58690;BME280;44470;53.206;-6.106;2023-09-07T00:28:56;101767.44;;;20.96;69.98
58690;BME280;44470;53.206;-6.106;2023-09-07T00:31:22;101763.84;;;20.95;70.00
58690;BME280;44470;53.206;-6.106;2023-09-07T00:33:47;101747.78;;;20.95;70.26
58690;BME280;44470;53.206;-6.106;2023-09-07T00:36:12;101750.47;;;20.95;70.24
58690;BME280;44470;53.206;-6.106;2023-09-07T00:38:38;101755.81;;;20.97;70.04
58690;BME280;44470;53.206;-6.106;2023-09-07T00:41:03;101754.91;;;20.96;70.20
58690;BME280;44470;53.206;-6.106;2023-09-07T00:43:28;101750.50;;;20.90;69.71
58690;BME280;44470;53.206;-6.106;2023-09-07T00:45:55;101760.28;;;20.96;70.00
58690;BME280;44470;53.206;-6.106;2023-09-07T00:48:20;101761.19;;;20.97;69.94
58690;BME280;44470;53.206;-6.106;2023-09-07T00:50:46;101762.97;;;20.95;70.00
58690;BME280;44470;53.206;-6.106;2023-09-07T00:53:12;101764.75;;;20.96;70.00
58690;BME280;44470;53.206;-6.106;2023-09-07T00:55:37;101758.50;;;20.95;70.12
58690;BME280;44470;53.206;-6.106;2023-09-07T00:58:06;101761.16;;;20.95;69.99
58690;BME280;44470;53.206;-6.106;2023-09-07T01:00:32;101706.97;;;20.68;70.00
58690;BME280;44470;53.206;-6.106;2023-09-07T01:02:57;101754.03;;;20.96;69.84
58690;BME280;44470;53.206;-6.106;2023-09-07T01:05:24;101754.91;;;20.96;69.84
58690;BME280;44470;53.206;-6.106;2023-09-07T01:07:54;101753.19;;;20.89;69.96
58690;BME280;44470;53.206;-6.106;2023-09-07T01:10:22;101742.47;;;20.87;70.10
58690;BME280;44470;53.206;-6.106;2023-09-07T01:12:48;101718.53;;;20.69;69.83
58690;BME280;44470;53.206;-6.106;2023-09-07T01:15:13;101763.84;;;20.95;69.91
58690;BME280;44470;53.206;-6.106;2023-09-07T01:17:39;101761.16;;;20.95;69.81
58690;BME280;44470;53.206;-6.106;2023-09-07T01:20:05;101744.25;;;20.90;69.69
58690;BME280;44470;53.206;-6.106;2023-09-07T01:22:35;101756.72;;;20.96;69.66
58690;BME280;44470;53.206;-6.106;2023-09-07T01:25:00;101758.50;;;20.95;69.65
58690;BME280;44470;53.206;-6.106;2023-09-07T01:27:27;101755.81;;;20.95;69.63
58690;BME280;44470;53.206;-6.106;2023-09-07T01:29:53;101754.94;;;20.95;69.93
58690;BME280;44470;53.206;-6.106;2023-09-07T01:32:18;101744.25;;;20.95;69.81
58690;BME280;44470;53.206;-6.106;2023-09-07T01:34:44;101745.13;;;20.95;69.70
58690;BME280;44470;53.206;-6.106;2023-09-07T01:37:09;101738.88;;;20.93;69.56
58690;BME280;44470;53.206;-6.106;2023-09-07T01:39:35;101740.66;;;20.96;69.55
58690;BME280;44470;53.206;-6.106;2023-09-07T01:42:02;101740.66;;;20.94;69.94
58690;BME280;44470;53.206;-6.106;2023-09-07T01:44:28;101747.78;;;20.95;69.81
58690;BME280;44470;53.206;-6.106;2023-09-07T01:46:55;101738.00;;;20.96;69.72
58690;BME280;44470;53.206;-6.106;2023-09-07T01:49:21;101736.22;;;20.95;69.87
58690;BME280;44470;53.206;-6.106;2023-09-07T01:51:46;101735.31;;;20.94;69.88
58690;BME280;44470;53.206;-6.106;2023-09-07T01:54:12;101731.72;;;20.95;69.84
58690;BME280;44470;53.206;-6.106;2023-09-07T01:56:37;101734.41;;;20.95;69.84
58690;BME280;44470;53.206;-6.106;2023-09-07T01:59:04;101735.31;;;20.94;69.80
58690;BME280;44470;53.206;-6.106;2023-09-07T02:01:32;101727.28;;;20.94;69.68
58690;BME280;44470;53.206;-6.106;2023-09-07T02:04:01;101731.72;;;20.94;69.72
58690;BME280;44470;53.206;-6.106;2023-09-07T02:06:27;101727.28;;;20.94;69.75
58690;BME280;44470;53.206;-6.106;2023-09-07T02:08:53;101729.06;;;20.94;69.63
58690;BME280;44470;53.206;-6.106;2023-09-07T02:11:18;101732.63;;;20.94;69.63
58690;BME280;44470;53.206;-6.106;2023-09-07T02:13:46;101726.38;;;20.94;69.72
58690;BME280;44470;53.206;-6.106;2023-09-07T02:16:11;101724.59;;;20.94;69.60
58690;BME280;44470;53.206;-6.106;2023-09-07T02:18:37;101725.50;;;20.95;69.75
58690;BME280;44470;53.206;-6.106;2023-09-07T02:21:09;101703.28;;;20.85;69.45
58690;BME280;44470;53.206;-6.106;2023-09-07T02:23:34;101726.38;;;20.95;69.54
58690;BME280;44470;53.206;-6.106;2023-09-07T02:26:01;101715.69;;;20.95;69.77
58690;BME280;44470;53.206;-6.106;2023-09-07T02:28:27;101713.91;;;20.94;69.55
58690;BME280;44470;53.206;-6.106;2023-09-07T02:30:53;101710.31;;;20.95;69.34
58690;BME280;44470;53.206;-6.106;2023-09-07T02:33:18;101701.44;;;20.93;69.83
58690;BME280;44470;53.206;-6.106;2023-09-07T02:35:43;101709.44;;;20.95;69.62
58690;BME280;44470;53.206;-6.106;2023-09-07T02:38:09;101696.94;;;20.94;69.60
58690;BME280;44470;53.206;-6.106;2023-09-07T02:40:41;101699.63;;;20.94;69.51
58690;BME280;44470;53.206;-6.106;2023-09-07T02:43:07;101689.00;;;20.86;69.25
58690;BME280;44470;53.206;-6.106;2023-09-07T02:45:33;101701.44;;;20.93;69.53
58690;BME280;44470;53.206;-6.106;2023-09-07T02:47:59;101702.28;;;20.95;69.55
58690;BME280;44470;53.206;-6.106;2023-09-07T02:50:24;101691.59;;;20.94;69.26
58690;BME280;44470;53.206;-6.106;2023-09-07T02:52:49;101699.63;;;20.95;69.47
58690;BME280;44470;53.206;-6.106;2023-09-07T02:55:15;101697.84;;;20.94;69.36
58690;BME280;44470;53.206;-6.106;2023-09-07T02:57:40;101700.53;;;20.94;69.46
58690;BME280;44470;53.206;-6.106;2023-09-07T03:00:06;101709.44;;;20.93;69.31
58690;BME280;44470;53.206;-6.106;2023-09-07T03:02:36;101713.91;;;20.94;69.30
58690;BME280;44470;53.206;-6.106;2023-09-07T03:05:02;101711.22;;;20.93;69.62
58690;BME280;44470;53.206;-6.106;2023-09-07T03:07:33;101722.84;;;20.93;69.57
58690;BME280;44470;53.206;-6.106;2023-09-07T03:09:58;101721.94;;;20.94;69.37
58690;BME280;44470;53.206;-6.106;2023-09-07T03:12:24;101725.50;;;20.93;69.54
58690;BME280;44470;53.206;-6.106;2023-09-07T03:14:51;101714.84;;;20.87;69.17
58690;BME280;44470;53.206;-6.106;2023-09-07T03:17:17;101705.97;;;20.83;69.50
58690;BME280;44470;53.206;-6.106;2023-09-07T03:19:42;101688.19;;;20.74;69.40
58690;BME280;44470;53.206;-6.106;2023-09-07T03:22:08;101711.25;;;20.91;69.25
58690;BME280;44470;53.206;-6.106;2023-09-07T03:24:34;101713.00;;;20.94;69.52
58690;BME280;44470;53.206;-6.106;2023-09-07T03:26:59;101706.78;;;20.93;69.20
58690;BME280;44470;53.206;-6.106;2023-09-07T03:29:25;101703.19;;;20.94;69.28
58690;BME280;44470;53.206;-6.106;2023-09-07T03:31:50;101698.75;;;20.93;69.50
58690;BME280;44470;53.206;-6.106;2023-09-07T03:34:16;101696.06;;;20.93;69.20
58690;BME280;44470;53.206;-6.106;2023-09-07T03:36:41;101707.66;;;20.94;69.16
58690;BME280;44470;53.206;-6.106;2023-09-07T03:39:07;101712.13;;;20.93;69.24
58690;BME280;44470;53.206;-6.106;2023-09-07T03:41:34;101714.81;;;20.93;69.45
58690;BME280;44470;53.206;-6.106;2023-09-07T03:43:59;101715.69;;;20.92;69.30
58690;BME280;44470;53.206;-6.106;2023-09-07T03:46:28;101708.53;;;20.93;69.08
58690;BME280;44470;53.206;-6.106;2023-09-07T03:48:54;101706.78;;;20.93;69.17
58690;BME280;44470;53.206;-6.106;2023-09-07T03:51:19;101696.06;;;20.93;69.21
58690;BME280;44470;53.206;-6.106;2023-09-07T03:53:44;101694.28;;;20.92;69.15
58690;BME280;44470;53.206;-6.106;2023-09-07T03:56:11;101699.66;;;20.92;69.18
58690;BME280;44470;53.206;-6.106;2023-09-07T03:58:37;101693.41;;;20.93;69.19
58690;BME280;44470;53.206;-6.106;2023-09-07T04:01:02;101688.06;;;20.90;69.19
58690;BME280;44470;53.206;-6.106;2023-09-07T04:03:29;101689.81;;;20.93;69.12
58690;BME280;44470;53.206;-6.106;2023-09-07T04:05:55;101678.25;;;20.92;69.16
58690;BME280;44470;53.206;-6.106;2023-09-07T04:08:20;101671.13;;;20.91;69.21
58690;BME280;44470;53.206;-6.106;2023-09-07T04:10:46;101672.88;;;20.92;69.38
58690;BME280;44470;53.206;-6.106;2023-09-07T04:13:11;101671.97;;;20.91;69.13
58690;BME280;44470;53.206;-6.106;2023-09-07T04:15:46;101672.00;;;20.93;68.99
58690;BME280;44470;53.206;-6.106;2023-09-07T04:18:13;101669.31;;;20.91;69.17
58690;BME280;44470;53.206;-6.106;2023-09-07T04:20:40;101663.06;;;20.93;69.06
58690;BME280;44470;53.206;-6.106;2023-09-07T04:23:06;101664.84;;;20.90;69.15
58690;BME280;44470;53.206;-6.106;2023-09-07T04:25:32;101669.31;;;20.93;69.14
58690;BME280;44470;53.206;-6.106;2023-09-07T04:28:00;101662.19;;;20.92;69.15
58690;BME280;44470;53.206;-6.106;2023-09-07T04:30:26;101667.53;;;20.92;69.15
58690;BME280;44470;53.206;-6.106;2023-09-07T04:32:51;101662.19;;;20.92;68.99
58690;BME280;44470;53.206;-6.106;2023-09-07T04:35:17;101661.28;;;20.91;69.14
58690;BME280;44470;53.206;-6.106;2023-09-07T04:37:43;101662.19;;;20.92;69.24
58690;BME280;44470;53.206;-6.106;2023-09-07T04:40:09;101667.53;;;20.92;69.02
58690;BME280;44470;53.206;-6.106;2023-09-07T04:42:35;101663.97;;;20.91;69.10
58690;BME280;44470;53.206;-6.106;2023-09-07T04:45:01;101665.75;;;20.91;69.12
58690;BME280;44470;53.206;-6.106;2023-09-07T04:47:27;101663.09;;;20.91;69.12
58690;BME280;44470;53.206;-6.106;2023-09-07T04:49:52;101655.06;;;20.91;69.22
58690;BME280;44470;53.206;-6.106;2023-09-07T04:52:19;101650.56;;;20.91;68.87
58690;BME280;44470;53.206;-6.106;2023-09-07T04:54:45;101660.41;;;20.91;69.01
58690;BME280;44470;53.206;-6.106;2023-09-07T04:57:11;101661.28;;;20.91;68.99
58690;BME280;44470;53.206;-6.106;2023-09-07T04:59:36;101656.84;;;20.90;69.12
58690;BME280;44470;53.206;-6.106;2023-09-07T05:02:01;101665.75;;;20.91;69.09
58690;BME280;44470;53.206;-6.106;2023-09-07T05:04:27;101664.84;;;20.90;68.84
58690;BME280;44470;53.206;-6.106;2023-09-07T05:06:53;101659.50;;;20.90;69.22
58690;BME280;44470;53.206;-6.106;2023-09-07T05:09:18;101663.09;;;20.91;68.93
58690;BME280;44470;53.206;-6.106;2023-09-07T05:11:45;101663.09;;;20.91;68.92
58690;BME280;44470;53.206;-6.106;2023-09-07T05:14:11;101665.75;;;20.91;68.79
58690;BME280;44470;53.206;-6.106;2023-09-07T05:16:36;101657.72;;;20.91;69.05
58690;BME280;44470;53.206;-6.106;2023-09-07T05:19:01;101655.06;;;20.91;69.02
58690;BME280;44470;53.206;-6.106;2023-09-07T05:21:27;101652.38;;;20.91;69.11
58690;BME280;44470;53.206;-6.106;2023-09-07T05:23:53;101652.38;;;20.91;69.03
58690;BME280;44470;53.206;-6.106;2023-09-07T05:26:22;101655.06;;;20.91;68.84
58690;BME280;44470;53.206;-6.106;2023-09-07T05:28:51;101652.38;;;20.91;68.88
58690;BME280;44470;53.206;-6.106;2023-09-07T05:31:16;101652.38;;;20.91;68.71
58690;BME280;44470;53.206;-6.106;2023-09-07T05:33:42;101643.47;;;20.92;69.13
58690;BME280;44470;53.206;-6.106;2023-09-07T05:36:07;101639.00;;;20.91;69.07
58690;BME280;44470;53.206;-6.106;2023-09-07T05:38:33;101623.88;;;20.87;69.25
58690;BME280;44470;53.206;-6.106;2023-09-07T05:40:59;101634.53;;;20.91;69.18
58690;BME280;44470;53.206;-6.106;2023-09-07T05:43:25;101639.00;;;20.91;68.88
58690;BME280;44470;53.206;-6.106;2023-09-07T05:45:50;101639.00;;;20.91;68.82
58690;BME280;44470;53.206;-6.106;2023-09-07T05:48:15;101647.03;;;20.91;68.91
58690;BME280;44470;53.206;-6.106;2023-09-07T05:50:42;101648.81;;;20.90;69.05
58690;BME280;44470;53.206;-6.106;2023-09-07T05:53:07;101648.81;;;20.90;68.82
58690;BME280;44470;53.206;-6.106;2023-09-07T05:55:33;101644.34;;;20.91;69.00
58690;BME280;44470;53.206;-6.106;2023-09-07T05:58:03;101644.34;;;20.91;68.97
58690;BME280;44470;53.206;-6.106;2023-09-07T06:00:29;101639.00;;;20.91;69.02
58690;BME280;44470;53.206;-6.106;2023-09-07T06:02:54;101647.94;;;20.90;68.82
58690;BME280;44470;53.206;-6.106;2023-09-07T06:05:20;101629.28;;;20.79;68.84
58690;BME280;44470;53.206;-6.106;2023-09-07T06:07:47;101655.06;;;20.91;69.11
58690;BME280;44470;53.206;-6.106;2023-09-07T06:10:14;101655.06;;;20.91;68.99
58690;BME280;44470;53.206;-6.106;2023-09-07T06:12:39;101656.84;;;20.90;68.75
58690;BME280;44470;53.206;-6.106;2023-09-07T06:15:07;101657.72;;;20.91;68.96
58690;BME280;44470;53.206;-6.106;2023-09-07T06:17:33;101661.28;;;20.91;68.91
58690;BME280;44470;53.206;-6.106;2023-09-07T06:19:58;101649.72;;;20.91;69.00
58690;BME280;44470;53.206;-6.106;2023-09-07T06:22:24;101652.38;;;20.91;68.77
58690;BME280;44470;53.206;-6.106;2023-09-07T06:24:50;101656.84;;;20.92;68.68
58690;BME280;44470;53.206;-6.106;2023-09-07T06:27:17;101667.53;;;20.92;69.00
58690;BME280;44470;53.206;-6.106;2023-09-07T06:29:42;101678.25;;;20.92;69.07
58690;BME280;44470;53.206;-6.106;2023-09-07T06:32:08;101670.22;;;20.90;68.81
58690;BME280;44470;53.206;-6.106;2023-09-07T06:34:33;101681.81;;;20.91;68.93
58690;BME280;44470;53.206;-6.106;2023-09-07T06:36:59;101683.59;;;20.92;69.15
58690;BME280;44470;53.206;-6.106;2023-09-07T06:39:24;101682.69;;;20.91;69.16
58690;BME280;44470;53.206;-6.106;2023-09-07T06:41:50;101677.34;;;20.91;69.00
58690;BME280;44470;53.206;-6.106;2023-09-07T06:44:17;101679.13;;;20.91;68.96
58690;BME280;44470;53.206;-6.106;2023-09-07T06:46:44;101656.06;;;20.81;69.12
58690;BME280;44470;53.206;-6.106;2023-09-07T06:49:09;101677.34;;;20.91;69.04
58690;BME280;44470;53.206;-6.106;2023-09-07T06:51:34;101680.00;;;20.91;69.03
58690;BME280;44470;53.206;-6.106;2023-09-07T06:54:00;101665.75;;;20.91;69.16
58690;BME280;44470;53.206;-6.106;2023-09-07T06:56:26;101676.47;;;20.91;69.10
58690;BME280;44470;53.206;-6.106;2023-09-07T06:58:52;101679.13;;;20.91;69.07
58690;BME280;44470;53.206;-6.106;2023-09-07T07:01:18;101669.34;;;20.90;68.85
58690;BME280;44470;53.206;-6.106;2023-09-07T07:03:44;101682.69;;;20.91;69.01
58690;BME280;44470;53.206;-6.106;2023-09-07T07:06:09;101688.94;;;20.92;69.14
58690;BME280;44470;53.206;-6.106;2023-09-07T07:08:35;101697.88;;;20.91;69.21
58690;BME280;44470;53.206;-6.106;2023-09-07T07:11:00;101705.88;;;20.93;69.10
58690;BME280;44470;53.206;-6.106;2023-09-07T07:13:26;101695.16;;;20.93;69.05
58690;BME280;44470;53.206;-6.106;2023-09-07T07:15:51;101702.31;;;20.92;69.12
58690;BME280;44470;53.206;-6.106;2023-09-07T07:18:17;101705.88;;;20.93;69.30
58690;BME280;44470;53.206;-6.106;2023-09-07T07:20:42;101707.69;;;20.92;69.13
58690;BME280;44470;53.206;-6.106;2023-09-07T07:23:11;101710.34;;;20.92;69.10
58690;BME280;44470;53.206;-6.106;2023-09-07T07:25:38;101699.66;;;20.92;69.42
58690;BME280;44470;53.206;-6.106;2023-09-07T07:28:04;101713.03;;;20.92;69.25
58690;BME280;44470;53.206;-6.106;2023-09-07T07:30:33;101707.69;;;20.92;69.36
58690;BME280;44470;53.206;-6.106;2023-09-07T07:32:59;101705.00;;;20.92;69.43
58690;BME280;44470;53.206;-6.106;2023-09-07T07:35:24;101706.78;;;20.93;69.46
58690;BME280;44470;53.206;-6.106;2023-09-07T07:41:18;101697.84;;;20.94;69.15
58690;BME280;44470;53.206;-6.106;2023-09-07T07:43:43;101705.00;;;20.92;69.52
58690;BME280;44470;53.206;-6.106;2023-09-07T07:46:09;101693.41;;;20.91;69.22
58690;BME280;44470;53.206;-6.106;2023-09-07T07:48:36;101703.19;;;20.93;69.47
58690;BME280;44470;53.206;-6.106;2023-09-07T07:51:03;101696.97;;;20.92;69.51
58690;BME280;44470;53.206;-6.106;2023-09-07T07:53:30;101705.88;;;20.94;69.57
58690;BME280;44470;53.206;-6.106;2023-09-07T07:55:56;101709.44;;;20.93;69.37
58690;BME280;44470;53.206;-6.106;2023-09-07T07:58:22;101704.09;;;20.93;69.38
58690;BME280;44470;53.206;-6.106;2023-09-07T08:00:48;101708.53;;;20.94;69.59
58690;BME280;44470;53.206;-6.106;2023-09-07T08:03:18;101696.94;;;20.94;69.41
58690;BME280;44470;53.206;-6.106;2023-09-07T08:05:44;101695.16;;;20.94;69.41
58690;BME280;44470;53.206;-6.106;2023-09-07T08:08:10;101704.09;;;20.95;69.52
58690;BME280;44470;53.206;-6.106;2023-09-07T08:10:36;101701.44;;;20.93;69.73
58690;BME280;44470;53.206;-6.106;2023-09-07T08:13:03;101704.97;;;20.95;69.64
58690;BME280;44470;53.206;-6.106;2023-09-07T08:15:31;101703.19;;;20.94;69.85
58690;BME280;44470;53.206;-6.106;2023-09-07T08:17:57;101708.53;;;20.94;69.74
58690;BME280;44470;53.206;-6.106;2023-09-07T08:20:22;101713.91;;;20.94;69.79
58690;BME280;44470;53.206;-6.106;2023-09-07T08:22:48;101697.84;;;20.94;69.89
58690;BME280;44470;53.206;-6.106;2023-09-07T08:25:14;101693.41;;;20.95;69.75
58690;BME280;44470;53.206;-6.106;2023-09-07T08:27:40;101706.78;;;20.95;69.63
58690;BME280;44470;53.206;-6.106;2023-09-07T08:30:10;101707.66;;;20.94;69.53
58690;BME280;44470;53.206;-6.106;2023-09-07T08:32:36;101713.91;;;20.94;70.00
58690;BME280;44470;53.206;-6.106;2023-09-07T08:35:03;101705.88;;;20.96;69.78
58690;BME280;44470;53.206;-6.106;2023-09-07T08:37:31;101710.31;;;20.95;69.75
58690;BME280;44470;53.206;-6.106;2023-09-07T08:39:58;101716.56;;;20.96;69.86
58690;BME280;44470;53.206;-6.106;2023-09-07T08:42:24;101716.56;;;20.94;69.63
58690;BME280;44470;53.206;-6.106;2023-09-07T08:44:50;101713.91;;;20.94;70.00
58690;BME280;44470;53.206;-6.106;2023-09-07T08:47:16;101708.53;;;20.94;69.95
58690;BME280;44470;53.206;-6.106;2023-09-07T08:49:42;101704.09;;;20.95;69.85
58690;BME280;44470;53.206;-6.106;2023-09-07T08:52:09;101691.59;;;20.94;69.97
58690;BME280;44470;53.206;-6.106;2023-09-07T08:54:35;101695.16;;;20.96;69.81
58690;BME280;44470;53.206;-6.106;2023-09-07T08:57:02;101692.50;;;20.94;69.68
58690;BME280;44470;53.206;-6.106;2023-09-07T08:59:29;101690.69;;;20.96;70.02
58690;BME280;44470;53.206;-6.106;2023-09-07T09:01:58;101684.47;;;20.96;70.00
58690;BME280;44470;53.206;-6.106;2023-09-07T09:04:24;101692.50;;;20.96;69.91
58690;BME280;44470;53.206;-6.106;2023-09-07T09:06:49;101693.38;;;20.96;69.96
58690;BME280;44470;53.206;-6.106;2023-09-07T09:09:23;101691.59;;;20.97;69.91
58690;BME280;44470;53.206;-6.106;2023-09-07T09:11:49;101686.25;;;20.97;69.95
58690;BME280;44470;53.206;-6.106;2023-09-07T09:14:18;101680.00;;;20.93;70.09
58690;BME280;44470;53.206;-6.106;2023-09-07T09:16:52;101692.47;;;20.97;70.17
58690;BME280;44470;53.206;-6.106;2023-09-07T09:19:18;101684.44;;;20.97;70.23
58690;BME280;44470;53.206;-6.106;2023-09-07T09:21:46;101679.97;;;20.98;70.19
58690;BME280;44470;53.206;-6.106;2023-09-07T09:24:12;101681.75;;;20.97;70.30
58690;BME280;44470;53.206;-6.106;2023-09-07T09:26:37;101688.00;;;20.98;70.20
58690;BME280;44470;53.206;-6.106;2023-09-07T09:29:03;101687.13;;;20.97;70.31
58690;BME280;44470;53.206;-6.106;2023-09-07T09:31:29;101688.88;;;20.98;70.28
58690;BME280;44470;53.206;-6.106;2023-09-07T09:33:55;101694.22;;;20.98;70.28
58690;BME280;44470;53.206;-6.106;2023-09-07T09:36:20;101690.69;;;20.98;70.38
58690;BME280;44470;53.206;-6.106;2023-09-07T09:38:49;101696.00;;;20.99;70.27
58690;BME280;44470;53.206;-6.106;2023-09-07T09:41:16;101701.38;;;20.99;70.31
58690;BME280;44470;53.206;-6.106;2023-09-07T09:43:41;101695.16;;;20.99;70.48
58690;BME280;44470;53.206;-6.106;2023-09-07T09:46:07;101696.94;;;20.97;70.68
58690;BME280;44470;53.206;-6.106;2023-09-07T09:48:33;101698.69;;;20.99;70.65
58690;BME280;44470;53.206;-6.106;2023-09-07T09:50:58;101697.81;;;20.99;70.66
58690;BME280;44470;53.206;-6.106;2023-09-07T09:53:24;101693.38;;;20.96;70.25
58690;BME280;44470;53.206;-6.106;2023-09-07T09:55:52;101701.38;;;20.99;70.56
58690;BME280;44470;53.206;-6.106;2023-09-07T09:58:17;101701.38;;;20.99;70.79
58690;BME280;44470;53.206;-6.106;2023-09-07T10:00:43;101697.78;;;21.00;70.57
58690;BME280;44470;53.206;-6.106;2023-09-07T10:03:28;101700.50;;;20.99;70.57
58690;BME280;44470;53.206;-6.106;2023-09-07T10:05:55;101696.00;;;20.99;70.67
58690;BME280;44470;53.206;-6.106;2023-09-07T10:08:21;101691.63;;;20.92;70.63
58690;BME280;44470;53.206;-6.106;2023-09-07T10:10:48;101703.16;;;20.97;70.49
58690;BME280;44470;53.206;-6.106;2023-09-07T10:13:14;101700.47;;;21.00;70.80
58690;BME280;44470;53.206;-6.106;2023-09-07T10:15:39;101704.03;;;21.01;70.72
58690;BME280;44470;53.206;-6.106;2023-09-07T10:18:09;101697.78;;;21.00;70.92
58690;BME280;44470;53.206;-6.106;2023-09-07T10:23:19;101690.66;;;21.01;70.89
58690;BME280;44470;53.206;-6.106;2023-09-07T10:25:51;101686.22;;;21.00;70.56
58690;BME280;44470;53.206;-6.106;2023-09-07T10:28:23;101692.44;;;21.00;70.56
58690;BME280;44470;53.206;-6.106;2023-09-07T10:31:02;101688.84;;;21.01;71.02
58690;BME280;44470;53.206;-6.106;2023-09-07T10:33:34;101694.22;;;21.01;70.79
58690;BME280;44470;53.206;-6.106;2023-09-07T10:36:00;101692.44;;;21.00;70.77
58690;BME280;44470;53.206;-6.106;2023-09-07T10:38:26;101687.97;;;21.01;70.83
58690;BME280;44470;53.206;-6.106;2023-09-07T10:40:55;101687.09;;;21.00;70.92
58690;BME280;44470;53.206;-6.106;2023-09-07T10:43:26;101690.66;;;21.01;70.92
58690;BME280;44470;53.206;-6.106;2023-09-07T10:45:53;101698.69;;;21.01;70.86
58690;BME280;44470;53.206;-6.106;2023-09-07T10:48:18;101672.00;;;20.93;71.02
58690;BME280;44470;53.206;-6.106;2023-09-07T10:50:44;101674.66;;;20.93;70.81
58690;BME280;44470;53.206;-6.106;2023-09-07T10:53:11;101685.28;;;21.02;71.05
58690;BME280;44470;53.206;-6.106;2023-09-07T10:55:37;101685.28;;;21.02;70.66
58690;BME280;44470;53.206;-6.106;2023-09-07T10:58:04;101685.28;;;21.02;70.99
58690;BME280;44470;53.206;-6.106;2023-09-07T11:00:29;101679.94;;;21.02;71.13
58690;BME280;44470;53.206;-6.106;2023-09-07T11:02:54;101679.94;;;21.02;70.86
58690;BME280;44470;53.206;-6.106;2023-09-07T11:05:20;101671.91;;;21.04;70.91
58690;BME280;44470;53.206;-6.106;2023-09-07T11:07:45;101669.22;;;21.02;71.05
58690;BME280;44470;53.206;-6.106;2023-09-07T11:10:11;101662.97;;;21.03;70.86
58690;BME280;44470;53.206;-6.106;2023-09-07T11:12:37;101662.09;;;21.03;71.22
58690;BME280;44470;53.206;-6.106;2023-09-07T11:15:03;101663.88;;;21.04;70.91
58690;BME280;44470;53.206;-6.106;2023-09-07T11:17:29;101671.00;;;21.03;71.12
58690;BME280;44470;53.206;-6.106;2023-09-07T11:19:55;101668.31;;;21.03;70.90
58690;BME280;44470;53.206;-6.106;2023-09-07T11:22:21;101665.63;;;21.03;71.17
58690;BME280;44470;53.206;-6.106;2023-09-07T11:24:46;101666.53;;;21.04;71.14
58690;BME280;44470;53.206;-6.106;2023-09-07T11:27:11;101672.75;;;21.04;71.20
58690;BME280;44470;53.206;-6.106;2023-09-07T11:29:37;101661.19;;;21.04;71.14
58690;BME280;44470;53.206;-6.106;2023-09-07T11:32:07;101669.22;;;21.04;71.15
58690;BME280;44470;53.206;-6.106;2023-09-07T11:34:33;101660.25;;;21.07;71.20
58690;BME280;44470;53.206;-6.106;2023-09-07T11:36:59;101646.91;;;21.05;71.38
58690;BME280;44470;53.206;-6.106;2023-09-07T11:39:24;101645.09;;;21.05;70.90
58690;BME280;44470;53.206;-6.106;2023-09-07T11:41:49;101643.31;;;21.04;70.92
58690;BME280;44470;53.206;-6.106;2023-09-07T11:44:15;101648.69;;;21.06;71.31
58690;BME280;44470;53.206;-6.106;2023-09-07T11:46:40;101654.03;;;21.06;71.24
58690;BME280;44470;53.206;-6.106;2023-09-07T11:49:05;101654.94;;;21.05;71.14
58690;BME280;44470;53.206;-6.106;2023-09-07T11:51:31;101643.31;;;21.04;71.13
58690;BME280;44470;53.206;-6.106;2023-09-07T11:53:56;101651.34;;;21.04;71.08
58690;BME280;44470;53.206;-6.106;2023-09-07T11:56:22;101642.41;;;21.05;70.96
58690;BME280;44470;53.206;-6.106;2023-09-07T11:58:47;101642.41;;;21.05;70.90
58690;BME280;44470;53.206;-6.106;2023-09-07T12:01:13;101646.88;;;21.07;71.32
58690;BME280;44470;53.206;-6.106;2023-09-07T12:03:41;101642.41;;;21.05;71.46
58690;BME280;44470;53.206;-6.106;2023-09-07T12:06:07;101645.09;;;21.07;71.44
58690;BME280;44470;53.206;-6.106;2023-09-07T12:08:32;101639.75;;;21.07;71.17
58690;BME280;44470;53.206;-6.106;2023-09-07T12:10:57;101619.34;;;20.97;71.48
58690;BME280;44470;53.206;-6.106;2023-09-07T12:13:23;101643.28;;;21.08;71.13
58690;BME280;44470;53.206;-6.106;2023-09-07T12:15:49;101635.25;;;21.08;71.25
58690;BME280;44470;53.206;-6.106;2023-09-07T12:18:14;101624.66;;;20.98;71.35
58690;BME280;44470;53.206;-6.106;2023-09-07T12:20:41;101628.13;;;21.07;71.67
58690;BME280;44470;53.206;-6.106;2023-09-07T12:23:06;101626.31;;;21.09;71.47
58690;BME280;44470;53.206;-6.106;2023-09-07T12:25:31;101626.31;;;21.09;71.33
58690;BME280;44470;53.206;-6.106;2023-09-07T12:27:57;101626.31;;;21.09;71.39
58690;BME280;44470;53.206;-6.106;2023-09-07T12:30:22;101616.53;;;21.09;71.66
58690;BME280;44470;53.206;-6.106;2023-09-07T12:32:49;101620.97;;;21.10;71.72
58690;BME280;44470;53.206;-6.106;2023-09-07T12:35:15;101613.84;;;21.09;71.95
58690;BME280;44470;53.206;-6.106;2023-09-07T12:37:40;101605.78;;;21.11;71.85
58690;BME280;44470;53.206;-6.106;2023-09-07T12:40:06;101608.47;;;21.11;71.81
58690;BME280;44470;53.206;-6.106;2023-09-07T12:42:41;101612.94;;;21.10;72.05